sensor_id;sensor_type;location;lat;lon;timestamp;temperature;humidity
7218;DHT22;3650;53.580;10.094;2022-09-09T00:01:02;17.00;99.90
7218;DHT22;3650;53.580;10.094;2022-09-09T00:03:36;17.00;99.90
7218;DHT22;3650;53.580;10.094;2022-09-09T00:06:10;17.00;99.90
7218;DHT22;3650;53.580;10.094;2022-09-09T00:08:50;17.00;99.90
7218;DHT22;3650;53.580;10.094;2022-09-09T00:11:25;17.00;99.90
7218;DHT22;3650;53.580;10.094;2022-09-09T00:13:54;17.00;99.90
7218;DHT22;3650;53.580;10.094;2022-09-09T00:16:25;17.00;99.90
7218;DHT22;3650;53.580;10.094;2022-09-09T00:18:59;17.10;99.90
7218;DHT22;3650;53.580;10.094;2022-09-09T00:21:33;17.10;99.90
7218;DHT22;3650;53.580;10.094;2022-09-09T00:24:09;17.10;99.90
7218;DHT22;3650;53.580;10.094;2022-09-09T00:26:43;17.10;99.90
7218;DHT22;3650;53.580;10.094;2022-09-09T00:29:18;17.10;99.90
7218;DHT22;3650;53.580;10.094;2022-09-09T00:31:47;17.10;99.90
7218;DHT22;3650;53.580;10.094;2022-09-09T00:34:16;17.10;99.90
7218;DHT22;3650;53.580;10.094;2022-09-09T00:36:45;17.10;99.90
7218;DHT22;3650;53.580;10.094;2022-09-09T00:39:25;17.10;99.90
7218;DHT22;3650;53.580;10.094;2022-09-09T00:42:03;17.10;99.90
7218;DHT22;3650;53.580;10.094;2022-09-09T00:44:36;17.10;99.90
7218;DHT22;3650;53.580;10.094;2022-09-09T00:47:16;17.10;99.90
7218;DHT22;3650;53.580;10.094;2022-09-09T00:49:54;17.10;99.90
7218;DHT22;3650;53.580;10.094;2022-09-09T00:52:32;17.10;99.90
7218;DHT22;3650;53.580;10.094;2022-09-09T00:55:13;17.10;99.90
7218;DHT22;3650;53.580;10.094;2022-09-09T00:57:42;17.10;99.90
7218;DHT22;3650;53.580;10.094;2022-09-09T01:00:22;17.10;99.90
7218;DHT22;3650;53.580;10.094;2022-09-09T01:02:56;17.10;99.90
7218;DHT22;3650;53.580;10.094;2022-09-09T01:05:34;17.10;99.90
7218;DHT22;3650;53.580;10.094;2022-09-09T01:08:09;17.10;99.90
7218;DHT22;3650;53.580;10.094;2022-09-09T01:10:43;17.10;99.90
7218;DHT22;3650;53.580;10.094;2022-09-09T01:13:19;17.10;99.90
7218;DHT22;3650;53.580;10.094;2022-09-09T01:15:48;17.10;99.90
7218;DHT22;3650;53.580;10.094;2022-09-09T01:18:17;17.10;99.90
7218;DHT22;3650;53.580;10.094;2022-09-09T01:20:51;17.00;99.90
7218;DHT22;3650;53.580;10.094;2022-09-09T01:23:45;17.00;99.90
7218;DHT22;3650;53.580;10.094;2022-09-09T01:26:19;17.00;99.90
7218;DHT22;3650;53.580;10.094;2022-09-09T01:28:50;17.00;99.90
7218;DHT22;3650;53.580;10.094;2022-09-09T01:31:21;17.00;99.90
7218;DHT22;3650;53.580;10.094;2022-09-09T01:33:49;17.00;99.90
7218;DHT22;3650;53.580;10.094;2022-09-09T01:36:23;17.00;99.90
7218;DHT22;3650;53.580;10.094;2022-09-09T01:38:52;17.00;99.90
7218;DHT22;3650;53.580;10.094;2022-09-09T01:41:20;17.00;99.90
7218;DHT22;3650;53.580;10.094;2022-09-09T01:43:48;17.00;99.90
7218;DHT22;3650;53.580;10.094;2022-09-09T01:46:15;17.00;99.90
7218;DHT22;3650;53.580;10.094;2022-09-09T01:48:43;17.00;99.90
7218;DHT22;3650;53.580;10.094;2022-09-09T01:51:10;16.90;99.90
7218;DHT22;3650;53.580;10.094;2022-09-09T01:53:38;16.90;99.90
7218;DHT22;3650;53.580;10.094;2022-09-09T01:56:13;17.00;99.90
7218;DHT22;3650;53.580;10.094;2022-09-09T01:58:57;17.00;99.90
7218;DHT22;3650;53.580;10.094;2022-09-09T02:01:35;16.90;99.70
7218;DHT22;3650;53.580;10.094;2022-09-09T02:04:14;16.90;99.80
7218;DHT22;3650;53.580;10.094;2022-09-09T02:06:46;16.90;99.80
7218;DHT22;3650;53.580;10.094;2022-09-09T02:09:18;16.90;99.80
7218;DHT22;3650;53.580;10.094;2022-09-09T02:11:47;16.90;99.70
7218;DHT22;3650;53.580;10.094;2022-09-09T02:14:21;16.90;99.60
7218;DHT22;3650;53.580;10.094;2022-09-09T02:16:52;16.90;99.60
7218;DHT22;3650;53.580;10.094;2022-09-09T02:19:24;16.90;99.70
7218;DHT22;3650;53.580;10.094;2022-09-09T02:21:53;16.90;99.70
7218;DHT22;3650;53.580;10.094;2022-09-09T02:24:21;16.80;99.50
7218;DHT22;3650;53.580;10.094;2022-09-09T02:26:52;16.80;99.50
7218;DHT22;3650;53.580;10.094;2022-09-09T02:29:25;16.80;99.50
7218;DHT22;3650;53.580;10.094;2022-09-09T02:31:55;16.80;99.40
7218;DHT22;3650;53.580;10.094;2022-09-09T02:34:25;16.80;99.10
7218;DHT22;3650;53.580;10.094;2022-09-09T02:36:54;16.70;99.30
7218;DHT22;3650;53.580;10.094;2022-09-09T02:39:21;16.70;99.50
7218;DHT22;3650;53.580;10.094;2022-09-09T02:41:48;16.70;99.60
7218;DHT22;3650;53.580;10.094;2022-09-09T02:44:17;16.70;99.70
7218;DHT22;3650;53.580;10.094;2022-09-09T02:47:06;16.70;99.80
7218;DHT22;3650;53.580;10.094;2022-09-09T02:49:43;16.70;99.90
7218;DHT22;3650;53.580;10.094;2022-09-09T02:52:18;16.70;99.70
7218;DHT22;3650;53.580;10.094;2022-09-09T02:54:50;16.70;99.80
7218;DHT22;3650;53.580;10.094;2022-09-09T02:57:22;16.70;99.80
7218;DHT22;3650;53.580;10.094;2022-09-09T02:59:50;16.70;99.70
7218;DHT22;3650;53.580;10.094;2022-09-09T03:02:19;16.70;99.90
7218;DHT22;3650;53.580;10.094;2022-09-09T03:04:46;16.70;99.90
7218;DHT22;3650;53.580;10.094;2022-09-09T03:07:16;16.70;99.90
7218;DHT22;3650;53.580;10.094;2022-09-09T03:09:43;16.70;99.70
7218;DHT22;3650;53.580;10.094;2022-09-09T03:12:11;16.60;99.60
7218;DHT22;3650;53.580;10.094;2022-09-09T03:14:38;16.60;99.70
7218;DHT22;3650;53.580;10.094;2022-09-09T03:17:05;16.60;99.70
7218;DHT22;3650;53.580;10.094;2022-09-09T03:19:34;16.60;99.80
7218;DHT22;3650;53.580;10.094;2022-09-09T03:22:01;16.60;99.80
7218;DHT22;3650;53.580;10.094;2022-09-09T03:24:30;16.60;99.80
7218;DHT22;3650;53.580;10.094;2022-09-09T03:26:56;16.60;99.90
7218;DHT22;3650;53.580;10.094;2022-09-09T03:29:23;16.60;99.70
7218;DHT22;3650;53.580;10.094;2022-09-09T03:31:50;16.60;99.80
7218;DHT22;3650;53.580;10.094;2022-09-09T03:34:17;16.60;99.80
7218;DHT22;3650;53.580;10.094;2022-09-09T03:36:45;16.60;99.70
7218;DHT22;3650;53.580;10.094;2022-09-09T03:39:14;16.60;99.60
7218;DHT22;3650;53.580;10.094;2022-09-09T03:41:41;16.60;99.50
7218;DHT22;3650;53.580;10.094;2022-09-09T03:44:07;16.60;99.60
7218;DHT22;3650;53.580;10.094;2022-09-09T03:46:34;16.60;99.70
7218;DHT22;3650;53.580;10.094;2022-09-09T03:49:01;16.60;99.80
7218;DHT22;3650;53.580;10.094;2022-09-09T03:51:28;16.60;99.80
7218;DHT22;3650;53.580;10.094;2022-09-09T03:53:56;16.60;99.80
7218;DHT22;3650;53.580;10.094;2022-09-09T03:56:24;16.60;99.80
7218;DHT22;3650;53.580;10.094;2022-09-09T03:58:50;16.60;99.80
7218;DHT22;3650;53.580;10.094;2022-09-09T04:01:17;16.60;99.80
7218;DHT22;3650;53.580;10.094;2022-09-09T04:03:44;16.60;99.60
7218;DHT22;3650;53.580;10.094;2022-09-09T04:06:12;16.60;99.40
7218;DHT22;3650;53.580;10.094;2022-09-09T04:08:40;16.50;99.20
7218;DHT22;3650;53.580;10.094;2022-09-09T04:11:08;16.50;99.20
7218;DHT22;3650;53.580;10.094;2022-09-09T04:13:36;16.50;99.00
7218;DHT22;3650;53.580;10.094;2022-09-09T04:16:04;16.50;99.00
7218;DHT22;3650;53.580;10.094;2022-09-09T04:18:31;16.50;99.00
7218;DHT22;3650;53.580;10.094;2022-09-09T04:20:59;16.40;98.90
7218;DHT22;3650;53.580;10.094;2022-09-09T04:23:28;16.50;98.70
7218;DHT22;3650;53.580;10.094;2022-09-09T04:25:56;16.40;98.80
7218;DHT22;3650;53.580;10.094;2022-09-09T04:28:27;16.40;98.80
7218;DHT22;3650;53.580;10.094;2022-09-09T04:30:54;16.40;98.80
7218;DHT22;3650;53.580;10.094;2022-09-09T04:33:23;16.40;98.70
7218;DHT22;3650;53.580;10.094;2022-09-09T04:35:51;16.40;98.60
7218;DHT22;3650;53.580;10.094;2022-09-09T04:38:19;16.40;98.70
7218;DHT22;3650;53.580;10.094;2022-09-09T04:40:49;16.40;98.70
7218;DHT22;3650;53.580;10.094;2022-09-09T04:43:17;16.40;98.80
7218;DHT22;3650;53.580;10.094;2022-09-09T04:45:47;16.40;98.90
7218;DHT22;3650;53.580;10.094;2022-09-09T04:48:15;16.40;99.00
7218;DHT22;3650;53.580;10.094;2022-09-09T04:50:41;16.40;98.90
7218;DHT22;3650;53.580;10.094;2022-09-09T04:53:09;16.40;98.90
7218;DHT22;3650;53.580;10.094;2022-09-09T04:55:36;16.40;98.90
7218;DHT22;3650;53.580;10.094;2022-09-09T04:58:04;16.40;99.00
7218;DHT22;3650;53.580;10.094;2022-09-09T05:00:31;16.40;99.00
7218;DHT22;3650;53.580;10.094;2022-09-09T05:03:02;16.40;99.30
7218;DHT22;3650;53.580;10.094;2022-09-09T05:05:29;16.40;98.90
7218;DHT22;3650;53.580;10.094;2022-09-09T05:08:01;16.40;98.80
7218;DHT22;3650;53.580;10.094;2022-09-09T05:10:28;16.40;98.90
7218;DHT22;3650;53.580;10.094;2022-09-09T05:12:55;16.40;98.90
7218;DHT22;3650;53.580;10.094;2022-09-09T05:15:22;16.40;98.80
7218;DHT22;3650;53.580;10.094;2022-09-09T05:17:49;16.40;98.70
7218;DHT22;3650;53.580;10.094;2022-09-09T05:20:19;16.50;98.70
7218;DHT22;3650;53.580;10.094;2022-09-09T05:22:46;16.40;98.50
7218;DHT22;3650;53.580;10.094;2022-09-09T05:25:13;16.50;98.40
7218;DHT22;3650;53.580;10.094;2022-09-09T05:27:40;16.40;98.50
7218;DHT22;3650;53.580;10.094;2022-09-09T05:30:08;16.40;98.60
7218;DHT22;3650;53.580;10.094;2022-09-09T05:32:35;16.40;98.60
7218;DHT22;3650;53.580;10.094;2022-09-09T05:35:02;16.40;98.70
7218;DHT22;3650;53.580;10.094;2022-09-09T05:37:32;16.40;98.80
7218;DHT22;3650;53.580;10.094;2022-09-09T05:39:58;16.40;99.00
7218;DHT22;3650;53.580;10.094;2022-09-09T05:42:30;16.40;99.00
7218;DHT22;3650;53.580;10.094;2022-09-09T05:44:57;16.40;99.00
7218;DHT22;3650;53.580;10.094;2022-09-09T05:47:24;16.50;99.10
7218;DHT22;3650;53.580;10.094;2022-09-09T05:49:53;16.50;99.20
7218;DHT22;3650;53.580;10.094;2022-09-09T05:52:20;16.50;99.20
7218;DHT22;3650;53.580;10.094;2022-09-09T05:54:49;16.50;99.20
7218;DHT22;3650;53.580;10.094;2022-09-09T05:57:16;16.50;99.10
7218;DHT22;3650;53.580;10.094;2022-09-09T05:59:45;16.60;99.30
7218;DHT22;3650;53.580;10.094;2022-09-09T06:02:12;16.60;99.60
7218;DHT22;3650;53.580;10.094;2022-09-09T06:04:39;16.60;99.50
7218;DHT22;3650;53.580;10.094;2022-09-09T06:07:06;16.70;99.30
7218;DHT22;3650;53.580;10.094;2022-09-09T06:09:33;16.70;99.10
7218;DHT22;3650;53.580;10.094;2022-09-09T06:12:01;16.70;99.20
7218;DHT22;3650;53.580;10.094;2022-09-09T06:14:28;16.70;99.20
7218;DHT22;3650;53.580;10.094;2022-09-09T06:16:55;16.70;99.10
7218;DHT22;3650;53.580;10.094;2022-09-09T06:19:22;16.70;99.20
7218;DHT22;3650;53.580;10.094;2022-09-09T06:21:51;16.70;99.00
7218;DHT22;3650;53.580;10.094;2022-09-09T06:24:18;16.70;98.90
7218;DHT22;3650;53.580;10.094;2022-09-09T06:26:45;16.70;99.10
7218;DHT22;3650;53.580;10.094;2022-09-09T06:29:13;16.70;99.00
7218;DHT22;3650;53.580;10.094;2022-09-09T06:31:40;16.80;99.10
7218;DHT22;3650;53.580;10.094;2022-09-09T06:34:08;16.80;99.40
7218;DHT22;3650;53.580;10.094;2022-09-09T06:36:37;16.80;99.70
7218;DHT22;3650;53.580;10.094;2022-09-09T06:39:05;16.80;99.00
7218;DHT22;3650;53.580;10.094;2022-09-09T06:41:33;16.80;98.80
7218;DHT22;3650;53.580;10.094;2022-09-09T06:44:00;16.80;98.90
7218;DHT22;3650;53.580;10.094;2022-09-09T06:46:30;16.80;98.90
7218;DHT22;3650;53.580;10.094;2022-09-09T06:48:59;16.80;99.10
7218;DHT22;3650;53.580;10.094;2022-09-09T06:51:27;16.80;99.30
7218;DHT22;3650;53.580;10.094;2022-09-09T06:53:56;16.80;99.10
7218;DHT22;3650;53.580;10.094;2022-09-09T06:56:25;16.80;99.20
7218;DHT22;3650;53.580;10.094;2022-09-09T06:58:54;16.80;99.20
7218;DHT22;3650;53.580;10.094;2022-09-09T07:01:22;16.80;99.50
7218;DHT22;3650;53.580;10.094;2022-09-09T07:03:51;16.80;99.50
7218;DHT22;3650;53.580;10.094;2022-09-09T07:06:20;16.80;99.90
7218;DHT22;3650;53.580;10.094;2022-09-09T07:08:51;16.80;99.90
7218;DHT22;3650;53.580;10.094;2022-09-09T07:11:19;16.80;99.90
7218;DHT22;3650;53.580;10.094;2022-09-09T07:13:46;16.80;99.90
7218;DHT22;3650;53.580;10.094;2022-09-09T07:16:15;16.90;99.90
7218;DHT22;3650;53.580;10.094;2022-09-09T07:18:42;16.90;99.90
7218;DHT22;3650;53.580;10.094;2022-09-09T07:21:12;16.90;99.90
7218;DHT22;3650;53.580;10.094;2022-09-09T07:23:40;16.90;99.90
7218;DHT22;3650;53.580;10.094;2022-09-09T07:26:09;17.00;99.90
7218;DHT22;3650;53.580;10.094;2022-09-09T07:28:36;17.00;99.90
7218;DHT22;3650;53.580;10.094;2022-09-09T07:31:04;17.00;99.90
7218;DHT22;3650;53.580;10.094;2022-09-09T07:33:33;17.00;99.90
7218;DHT22;3650;53.580;10.094;2022-09-09T07:36:05;17.00;99.90
7218;DHT22;3650;53.580;10.094;2022-09-09T07:38:37;17.10;99.90
7218;DHT22;3650;53.580;10.094;2022-09-09T07:41:05;17.10;99.90
7218;DHT22;3650;53.580;10.094;2022-09-09T07:43:34;17.10;99.90
7218;DHT22;3650;53.580;10.094;2022-09-09T07:46:01;17.10;99.90
7218;DHT22;3650;53.580;10.094;2022-09-09T07:48:28;17.10;99.90
7218;DHT22;3650;53.580;10.094;2022-09-09T07:51:06;17.10;99.90
7218;DHT22;3650;53.580;10.094;2022-09-09T07:53:35;17.20;99.90
7218;DHT22;3650;53.580;10.094;2022-09-09T07:56:05;17.20;99.90
7218;DHT22;3650;53.580;10.094;2022-09-09T07:58:35;17.30;99.90
7218;DHT22;3650;53.580;10.094;2022-09-09T08:01:07;17.30;99.90
7218;DHT22;3650;53.580;10.094;2022-09-09T08:03:35;17.30;99.90
7218;DHT22;3650;53.580;10.094;2022-09-09T08:06:02;17.40;99.90
7218;DHT22;3650;53.580;10.094;2022-09-09T08:08:29;17.40;99.90
7218;DHT22;3650;53.580;10.094;2022-09-09T08:11:06;17.40;99.90
7218;DHT22;3650;53.580;10.094;2022-09-09T08:13:34;17.50;99.90
7218;DHT22;3650;53.580;10.094;2022-09-09T08:16:12;17.50;99.90
7218;DHT22;3650;53.580;10.094;2022-09-09T08:18:40;17.50;99.90
7218;DHT22;3650;53.580;10.094;2022-09-09T08:21:09;17.60;99.90
7218;DHT22;3650;53.580;10.094;2022-09-09T08:23:37;17.60;99.90
7218;DHT22;3650;53.580;10.094;2022-09-09T08:26:10;17.60;99.90
7218;DHT22;3650;53.580;10.094;2022-09-09T08:28:37;17.60;99.90
7218;DHT22;3650;53.580;10.094;2022-09-09T08:31:10;17.60;99.90
7218;DHT22;3650;53.580;10.094;2022-09-09T08:33:37;17.70;99.90
7218;DHT22;3650;53.580;10.094;2022-09-09T08:36:05;17.60;99.90
7218;DHT22;3650;53.580;10.094;2022-09-09T08:38:32;17.70;99.90
7218;DHT22;3650;53.580;10.094;2022-09-09T08:41:11;17.70;99.90
7218;DHT22;3650;53.580;10.094;2022-09-09T08:43:41;17.70;99.90
7218;DHT22;3650;53.580;10.094;2022-09-09T08:46:12;17.70;99.90
7218;DHT22;3650;53.580;10.094;2022-09-09T08:48:49;17.70;99.90
7218;DHT22;3650;53.580;10.094;2022-09-09T08:51:18;17.80;99.90
7218;DHT22;3650;53.580;10.094;2022-09-09T08:53:49;17.80;99.90
7218;DHT22;3650;53.580;10.094;2022-09-09T08:56:21;17.80;99.90
7218;DHT22;3650;53.580;10.094;2022-09-09T08:58:52;17.80;99.90
7218;DHT22;3650;53.580;10.094;2022-09-09T09:01:31;17.80;99.90
7218;DHT22;3650;53.580;10.094;2022-09-09T09:04:05;17.90;99.90
7218;DHT22;3650;53.580;10.094;2022-09-09T09:06:46;17.90;99.90
7218;DHT22;3650;53.580;10.094;2022-09-09T09:09:20;17.90;99.90
7218;DHT22;3650;53.580;10.094;2022-09-09T09:11:51;17.90;99.90
7218;DHT22;3650;53.580;10.094;2022-09-09T09:14:21;17.90;99.90
7218;DHT22;3650;53.580;10.094;2022-09-09T09:16:53;17.90;99.90
7218;DHT22;3650;53.580;10.094;2022-09-09T09:19:20;17.90;99.90
7218;DHT22;3650;53.580;10.094;2022-09-09T09:21:52;18.00;99.90
7218;DHT22;3650;53.580;10.094;2022-09-09T09:24:23;18.00;99.50
7218;DHT22;3650;53.580;10.094;2022-09-09T09:26:53;18.10;99.90
7218;DHT22;3650;53.580;10.094;2022-09-09T09:29:23;18.10;99.90
7218;DHT22;3650;53.580;10.094;2022-09-09T09:31:52;18.10;99.90
7218;DHT22;3650;53.580;10.094;2022-09-09T09:34:21;18.20;99.70
7218;DHT22;3650;53.580;10.094;2022-09-09T09:36:53;18.20;99.40
7218;DHT22;3650;53.580;10.094;2022-09-09T09:39:24;18.20;99.00
7218;DHT22;3650;53.580;10.094;2022-09-09T09:41:54;18.30;98.80
7218;DHT22;3650;53.580;10.094;2022-09-09T09:44:25;18.40;98.60
7218;DHT22;3650;53.580;10.094;2022-09-09T09:46:52;18.40;98.30
7218;DHT22;3650;53.580;10.094;2022-09-09T09:49:19;18.40;97.60
7218;DHT22;3650;53.580;10.094;2022-09-09T09:51:46;18.50;96.70
7218;DHT22;3650;53.580;10.094;2022-09-09T09:54:18;18.50;96.80
7218;DHT22;3650;53.580;10.094;2022-09-09T09:56:49;18.60;97.00
7218;DHT22;3650;53.580;10.094;2022-09-09T09:59:33;18.70;96.80
7218;DHT22;3650;53.580;10.094;2022-09-09T10:02:18;18.80;96.80
7218;DHT22;3650;53.580;10.094;2022-09-09T10:04:45;18.80;96.80
7218;DHT22;3650;53.580;10.094;2022-09-09T10:07:16;18.80;96.30
7218;DHT22;3650;53.580;10.094;2022-09-09T10:09:43;18.90;94.80
7218;DHT22;3650;53.580;10.094;2022-09-09T10:12:18;18.90;94.50
7218;DHT22;3650;53.580;10.094;2022-09-09T10:14:56;18.90;94.60
7218;DHT22;3650;53.580;10.094;2022-09-09T10:17:31;18.90;94.30
7218;DHT22;3650;53.580;10.094;2022-09-09T10:20:19;19.00;93.20
7218;DHT22;3650;53.580;10.094;2022-09-09T10:22:52;19.00;93.30
7218;DHT22;3650;53.580;10.094;2022-09-09T10:25:32;19.00;94.00
7218;DHT22;3650;53.580;10.094;2022-09-09T10:28:18;19.10;94.40
7218;DHT22;3650;53.580;10.094;2022-09-09T10:30:56;19.10;94.00
7218;DHT22;3650;53.580;10.094;2022-09-09T10:33:31;19.10;93.50
7218;DHT22;3650;53.580;10.094;2022-09-09T10:36:06;19.20;93.60
7218;DHT22;3650;53.580;10.094;2022-09-09T10:38:40;19.20;93.20
7218;DHT22;3650;53.580;10.094;2022-09-09T10:41:16;19.20;94.00
7218;DHT22;3650;53.580;10.094;2022-09-09T10:46:46;19.40;95.50
7218;DHT22;3650;53.580;10.094;2022-09-09T10:49:23;19.40;95.40
7218;DHT22;3650;53.580;10.094;2022-09-09T10:52:01;19.40;94.30
7218;DHT22;3650;53.580;10.094;2022-09-09T10:54:46;19.40;93.90
7218;DHT22;3650;53.580;10.094;2022-09-09T10:57:27;19.50;93.00
7218;DHT22;3650;53.580;10.094;2022-09-09T11:00:00;19.60;92.10
7218;DHT22;3650;53.580;10.094;2022-09-09T11:02:32;19.60;90.40
7218;DHT22;3650;53.580;10.094;2022-09-09T11:05:03;19.60;90.80
7218;DHT22;3650;53.580;10.094;2022-09-09T11:07:36;19.60;90.80
7218;DHT22;3650;53.580;10.094;2022-09-09T11:10:16;19.60;90.80
7218;DHT22;3650;53.580;10.094;2022-09-09T11:12:45;19.60;90.80
7218;DHT22;3650;53.580;10.094;2022-09-09T11:15:17;19.60;90.80
7218;DHT22;3650;53.580;10.094;2022-09-09T11:17:49;19.60;90.80
7218;DHT22;3650;53.580;10.094;2022-09-09T11:20:16;19.60;91.00
7218;DHT22;3650;53.580;10.094;2022-09-09T11:22:48;19.60;90.80
7218;DHT22;3650;53.580;10.094;2022-09-09T11:25:19;19.70;90.80
7218;DHT22;3650;53.580;10.094;2022-09-09T11:28:07;19.70;90.80
7218;DHT22;3650;53.580;10.094;2022-09-09T11:30:45;19.80;90.90
7218;DHT22;3650;53.580;10.094;2022-09-09T11:33:47;19.90;91.20
7218;DHT22;3650;53.580;10.094;2022-09-09T11:36:40;19.90;91.30
7218;DHT22;3650;53.580;10.094;2022-09-09T11:39:27;20.00;91.00
7218;DHT22;3650;53.580;10.094;2022-09-09T11:42:06;20.00;90.70
7218;DHT22;3650;53.580;10.094;2022-09-09T11:44:33;20.00;90.20
7218;DHT22;3650;53.580;10.094;2022-09-09T11:47:00;20.00;89.50
7218;DHT22;3650;53.580;10.094;2022-09-09T11:49:30;20.00;89.70
7218;DHT22;3650;53.580;10.094;2022-09-09T11:52:11;20.00;90.10
7218;DHT22;3650;53.580;10.094;2022-09-09T11:54:46;20.00;90.30
7218;DHT22;3650;53.580;10.094;2022-09-09T11:57:24;20.10;90.40
7218;DHT22;3650;53.580;10.094;2022-09-09T11:59:51;20.10;90.30
7218;DHT22;3650;53.580;10.094;2022-09-09T12:02:22;20.10;90.00
7218;DHT22;3650;53.580;10.094;2022-09-09T12:04:56;20.20;89.90
7218;DHT22;3650;53.580;10.094;2022-09-09T12:07:31;20.20;89.80
7218;DHT22;3650;53.580;10.094;2022-09-09T12:10:02;20.30;88.90
7218;DHT22;3650;53.580;10.094;2022-09-09T12:12:32;20.30;89.90
7218;DHT22;3650;53.580;10.094;2022-09-09T12:15:18;20.40;87.50
7218;DHT22;3650;53.580;10.094;2022-09-09T12:17:48;20.40;86.60
7218;DHT22;3650;53.580;10.094;2022-09-09T12:20:18;20.40;86.00
7218;DHT22;3650;53.580;10.094;2022-09-09T12:22:56;20.40;85.10
7218;DHT22;3650;53.580;10.094;2022-09-09T12:25:30;20.30;86.00
7218;DHT22;3650;53.580;10.094;2022-09-09T12:28:05;20.30;87.00
7218;DHT22;3650;53.580;10.094;2022-09-09T12:30:41;20.30;87.20
7218;DHT22;3650;53.580;10.094;2022-09-09T12:33:12;20.30;86.00
7218;DHT22;3650;53.580;10.094;2022-09-09T12:35:43;20.30;85.50
7218;DHT22;3650;53.580;10.094;2022-09-09T12:38:15;20.30;84.90
7218;DHT22;3650;53.580;10.094;2022-09-09T12:40:54;20.30;85.90
7218;DHT22;3650;53.580;10.094;2022-09-09T12:43:23;20.40;84.00
7218;DHT22;3650;53.580;10.094;2022-09-09T12:45:52;20.40;83.20
7218;DHT22;3650;53.580;10.094;2022-09-09T12:48:27;20.40;84.30
7218;DHT22;3650;53.580;10.094;2022-09-09T12:50:58;20.50;85.10
7218;DHT22;3650;53.580;10.094;2022-09-09T12:53:27;20.50;85.50
7218;DHT22;3650;53.580;10.094;2022-09-09T12:55:57;20.50;85.20
7218;DHT22;3650;53.580;10.094;2022-09-09T12:58:25;20.50;84.20
7218;DHT22;3650;53.580;10.094;2022-09-09T13:00:55;20.50;84.00
7218;DHT22;3650;53.580;10.094;2022-09-09T13:03:23;20.50;84.30
7218;DHT22;3650;53.580;10.094;2022-09-09T13:05:51;20.50;84.70
7218;DHT22;3650;53.580;10.094;2022-09-09T13:08:20;20.40;85.50
7218;DHT22;3650;53.580;10.094;2022-09-09T13:10:50;20.40;83.90
7218;DHT22;3650;53.580;10.094;2022-09-09T13:13:21;20.40;83.80
7218;DHT22;3650;53.580;10.094;2022-09-09T13:15:50;20.30;84.00
7218;DHT22;3650;53.580;10.094;2022-09-09T13:18:22;20.30;84.50
7218;DHT22;3650;53.580;10.094;2022-09-09T13:20:50;20.20;84.60
7218;DHT22;3650;53.580;10.094;2022-09-09T13:23:20;20.20;85.50
7218;DHT22;3650;53.580;10.094;2022-09-09T13:25:55;20.20;87.10
7218;DHT22;3650;53.580;10.094;2022-09-09T13:28:23;20.20;86.80
7218;DHT22;3650;53.580;10.094;2022-09-09T13:30:58;20.20;87.90
7218;DHT22;3650;53.580;10.094;2022-09-09T13:33:33;20.10;88.40
7218;DHT22;3650;53.580;10.094;2022-09-09T13:36:04;20.10;88.60
7218;DHT22;3650;53.580;10.094;2022-09-09T13:38:36;20.10;88.80
7218;DHT22;3650;53.580;10.094;2022-09-09T13:41:05;20.10;88.90
7218;DHT22;3650;53.580;10.094;2022-09-09T13:43:36;20.10;89.30
7218;DHT22;3650;53.580;10.094;2022-09-09T13:46:05;20.00;90.10
7218;DHT22;3650;53.580;10.094;2022-09-09T13:48:32;20.00;90.30
7218;DHT22;3650;53.580;10.094;2022-09-09T13:51:01;20.00;90.70
7218;DHT22;3650;53.580;10.094;2022-09-09T13:53:30;20.00;90.90
7218;DHT22;3650;53.580;10.094;2022-09-09T13:55:59;19.90;91.50
7218;DHT22;3650;53.580;10.094;2022-09-09T13:58:26;19.90;92.20
7218;DHT22;3650;53.580;10.094;2022-09-09T14:00:54;19.90;92.70
7218;DHT22;3650;53.580;10.094;2022-09-09T14:03:21;19.90;93.00
7218;DHT22;3650;53.580;10.094;2022-09-09T14:05:48;19.80;93.30
7218;DHT22;3650;53.580;10.094;2022-09-09T14:08:22;19.70;93.80
7218;DHT22;3650;53.580;10.094;2022-09-09T14:10:49;19.70;93.70
7218;DHT22;3650;53.580;10.094;2022-09-09T14:13:17;19.70;94.10
7218;DHT22;3650;53.580;10.094;2022-09-09T14:15:44;19.70;94.30
7218;DHT22;3650;53.580;10.094;2022-09-09T14:18:11;19.60;94.40
7218;DHT22;3650;53.580;10.094;2022-09-09T14:20:39;19.60;94.80
7218;DHT22;3650;53.580;10.094;2022-09-09T14:23:10;19.60;94.90
7218;DHT22;3650;53.580;10.094;2022-09-09T14:25:40;19.60;95.10
7218;DHT22;3650;53.580;10.094;2022-09-09T14:28:11;19.60;95.30
7218;DHT22;3650;53.580;10.094;2022-09-09T14:30:41;19.50;95.60
7218;DHT22;3650;53.580;10.094;2022-09-09T14:33:13;19.50;95.70
7218;DHT22;3650;53.580;10.094;2022-09-09T14:35:40;19.50;95.80
7218;DHT22;3650;53.580;10.094;2022-09-09T14:38:08;19.50;95.80
7218;DHT22;3650;53.580;10.094;2022-09-09T14:40:36;19.40;95.70
7218;DHT22;3650;53.580;10.094;2022-09-09T14:43:04;19.40;95.70
7218;DHT22;3650;53.580;10.094;2022-09-09T14:45:31;19.40;95.60
7218;DHT22;3650;53.580;10.094;2022-09-09T14:48:00;19.40;95.70
7218;DHT22;3650;53.580;10.094;2022-09-09T14:50:26;19.30;95.60
7218;DHT22;3650;53.580;10.094;2022-09-09T14:52:54;19.30;95.70
7218;DHT22;3650;53.580;10.094;2022-09-09T14:55:20;19.30;96.00
7218;DHT22;3650;53.580;10.094;2022-09-09T14:57:47;19.20;96.20
7218;DHT22;3650;53.580;10.094;2022-09-09T15:00:14;19.20;96.30
7218;DHT22;3650;53.580;10.094;2022-09-09T15:02:41;19.20;96.20
7218;DHT22;3650;53.580;10.094;2022-09-09T15:05:09;19.20;96.30
7218;DHT22;3650;53.580;10.094;2022-09-09T15:07:36;19.20;96.40
7218;DHT22;3650;53.580;10.094;2022-09-09T15:10:04;19.10;96.50
7218;DHT22;3650;53.580;10.094;2022-09-09T15:12:32;19.10;96.50
7218;DHT22;3650;53.580;10.094;2022-09-09T15:15:02;19.10;96.50
7218;DHT22;3650;53.580;10.094;2022-09-09T15:17:29;19.10;96.50
7218;DHT22;3650;53.580;10.094;2022-09-09T15:19:56;19.10;96.40
7218;DHT22;3650;53.580;10.094;2022-09-09T15:22:24;19.10;96.50
7218;DHT22;3650;53.580;10.094;2022-09-09T15:24:52;19.00;96.60
7218;DHT22;3650;53.580;10.094;2022-09-09T15:27:19;19.00;96.90
7218;DHT22;3650;53.580;10.094;2022-09-09T15:29:46;19.00;97.10
7218;DHT22;3650;53.580;10.094;2022-09-09T15:32:13;19.00;97.20
7218;DHT22;3650;53.580;10.094;2022-09-09T15:34:40;19.00;97.10
7218;DHT22;3650;53.580;10.094;2022-09-09T15:37:06;19.00;96.90
7218;DHT22;3650;53.580;10.094;2022-09-09T15:39:37;19.00;96.50
7218;DHT22;3650;53.580;10.094;2022-09-09T15:42:04;18.90;96.10
7218;DHT22;3650;53.580;10.094;2022-09-09T15:44:38;18.90;96.00
7218;DHT22;3650;53.580;10.094;2022-09-09T15:47:05;18.90;96.00
7218;DHT22;3650;53.580;10.094;2022-09-09T15:49:32;18.90;96.00
7218;DHT22;3650;53.580;10.094;2022-09-09T15:52:05;18.90;96.10
7218;DHT22;3650;53.580;10.094;2022-09-09T15:54:35;18.90;96.10
7218;DHT22;3650;53.580;10.094;2022-09-09T15:57:07;18.90;96.30
7218;DHT22;3650;53.580;10.094;2022-09-09T15:59:34;18.90;96.60
7218;DHT22;3650;53.580;10.094;2022-09-09T16:02:01;18.90;97.10
7218;DHT22;3650;53.580;10.094;2022-09-09T16:04:28;18.90;97.60
7218;DHT22;3650;53.580;10.094;2022-09-09T16:06:57;18.90;98.10
7218;DHT22;3650;53.580;10.094;2022-09-09T16:09:25;18.90;98.00